Time;durP1;ratioP1;P1;durP2;ratioP2;P2;SDS_P1;SDS_P2;PMS_P1;PMS_P2;Temp;Humidity;BMP_temperature;BMP_pressure;BME280_temperature;BME280_humidity;BME280_pressure;Samples;Min_cycle;Max_cycle;Signal;HPM_P1;HPM_P2
2022/06/05 00:01:02;;;;;;;0.93;0.60;;;21.40;50.20;;;;;;6177200;28;20437;-74
2022/06/05 00:04:25;;;;;;;0.60;0.60;;;21.30;50.10;;;;;;6174844;28;20031;-74
2022/06/05 00:07:51;;;;;;;0.52;0.52;;;21.40;50.20;;;;;;6189724;28;20030;-74
2022/06/05 00:10:57;;;;;;;3.03;0.55;;;21.30;50.10;;;;;;6196793;28;20113;-74
2022/06/05 00:13:57;;;;;;;0.57;0.50;;;21.30;50.10;;;;;;6174137;28;20034;-75
2022/06/05 00:16:58;;;;;;;0.65;0.60;;;21.30;50.20;;;;;;6184485;28;20027;-74
2022/06/05 00:19:59;;;;;;;0.60;0.60;;;21.30;50.20;;;;;;6198573;28;20038;-74
2022/06/05 00:22:59;;;;;;;0.85;0.55;;;21.30;50.20;;;;;;6180690;28;20060;-74
2022/06/05 00:26:31;;;;;;;0.60;0.50;;;21.30;50.50;;;;;;6174995;28;20474;-74
2022/06/05 00:29:58;;;;;;;0.57;0.57;;;21.30;50.20;;;;;;6198257;28;20034;-74
2022/06/05 00:33:19;;;;;;;0.70;0.60;;;21.30;50.20;;;;;;6181376;28;20039;-73
2022/06/05 00:36:45;;;;;;;0.93;0.80;;;21.30;50.30;;;;;;6176127;28;20057;-74
2022/06/05 00:39:55;;;;;;;0.82;0.70;;;21.30;50.30;;;;;;6174082;28;20105;-74
2022/06/05 00:43:03;;;;;;;0.65;0.60;;;21.30;50.30;;;;;;6188121;28;20015;-74
2022/06/05 00:46:03;;;;;;;0.95;0.60;;;21.30;50.30;;;;;;6197581;28;20022;-73
2022/06/05 00:49:06;;;;;;;0.55;0.55;;;21.30;50.30;;;;;;6174879;28;20433;-74
2022/06/05 00:52:10;;;;;;;0.90;0.65;;;21.30;50.30;;;;;;6162281;28;20186;-73
2022/06/05 00:55:12;;;;;;;1.10;0.57;;;21.30;50.30;;;;;;6197488;28;20492;-74
2022/06/05 00:58:15;;;;;;;0.70;0.70;;;21.30;50.30;;;;;;6182588;28;20023;-74
2022/06/05 01:01:16;;;;;;;0.80;0.70;;;21.30;50.40;;;;;;6157629;28;20027;-74
2022/06/05 01:04:18;;;;;;;0.65;0.65;;;21.30;50.40;;;;;;6174478;28;20548;-74
2022/06/05 01:07:21;;;;;;;0.80;0.68;;;21.30;50.40;;;;;;6179615;28;20033;-74
2022/06/05 01:10:25;;;;;;;0.60;0.60;;;21.30;50.40;;;;;;6197104;28;20600;-74
2022/06/05 01:13:38;;;;;;;0.50;0.50;;;21.30;50.40;;;;;;6165143;28;20155;-74
2022/06/05 01:16:46;;;;;;;0.57;0.50;;;21.30;50.40;;;;;;6155637;28;20114;-74
2022/06/05 01:20:16;;;;;;;0.55;0.50;;;21.30;50.40;;;;;;6195910;28;20398;-74
2022/06/05 01:23:32;;;;;;;0.80;0.80;;;21.30;50.40;;;;;;6161587;28;20046;-74
2022/06/05 01:26:38;;;;;;;0.70;0.70;;;21.30;50.40;;;;;;6172919;28;20019;-74
2022/06/05 01:29:46;;;;;;;0.90;0.80;;;21.30;50.40;;;;;;6194406;28;20389;-74
2022/06/05 01:33:01;;;;;;;1.10;0.80;;;21.30;50.40;;;;;;6158788;28;20109;-74
2022/06/05 01:36:09;;;;;;;0.50;0.50;;;21.30;50.40;;;;;;6173549;28;20035;-75
2022/06/05 01:39:12;;;;;;;0.90;0.80;;;21.30;50.40;;;;;;6188758;28;20018;-74
2022/06/05 01:42:29;;;;;;;0.68;0.60;;;21.30;50.50;;;;;;6194794;28;20026;-74
2022/06/05 01:45:39;;;;;;;0.82;0.77;;;21.30;50.50;;;;;;6171406;28;20397;-74
2022/06/05 01:48:49;;;;;;;0.50;0.43;;;21.30;50.50;;;;;;6182281;28;20114;-74
2022/06/05 01:52:27;;;;;;;0.70;0.70;;;21.30;50.50;;;;;;6196170;28;20058;-73
2022/06/05 01:55:37;;;;;;;0.60;0.57;;;21.30;50.50;;;;;;6195359;28;20082;-74
2022/06/05 01:58:53;;;;;;;1.23;0.77;;;21.30;50.50;;;;;;6185034;28;20030;-73
2022/06/05 02:01:58;;;;;;;0.73;0.73;;;21.30;50.60;;;;;;6172194;28;20150;-74
2022/06/05 02:05:25;;;;;;;0.70;0.70;;;21.30;50.50;;;;;;6191248;28;20340;-73
2022/06/05 02:08:33;;;;;;;0.65;0.65;;;21.20;50.40;;;;;;6170553;28;20030;-74
2022/06/05 02:11:35;;;;;;;0.60;0.60;;;21.30;50.50;;;;;;6171340;28;20038;-74
2022/06/05 02:14:40;;;;;;;0.70;0.70;;;21.30;50.60;;;;;;6170223;28;20046;-74
2022/06/05 02:17:42;;;;;;;0.52;0.52;;;21.30;50.60;;;;;;6195831;28;20034;-74
2022/06/05 02:20:44;;;;;;;0.50;0.50;;;21.30;50.60;;;;;;6169546;28;20037;-74
2022/06/05 02:23:44;;;;;;;0.70;0.70;;;21.30;51.30;;;;;;6178730;28;20026;-74
2022/06/05 02:26:45;;;;;;;0.55;0.50;;;21.30;50.60;;;;;;6196103;28;20019;-74
2022/06/05 02:29:46;;;;;;;1.00;0.82;;;21.20;50.50;;;;;;6162650;28;20037;-73
2022/06/05 02:33:23;;;;;;;1.10;0.93;;;21.30;50.60;;;;;;6189900;28;20061;-74
2022/06/05 02:36:44;;;;;;;1.27;0.82;;;21.20;50.50;;;;;;6170265;28;20182;-73
2022/06/05 02:40:03;;;;;;;0.93;0.70;;;21.30;50.60;;;;;;6153419;28;20044;-73
2022/06/05 02:47:38;;;;;;;0.82;0.70;;;21.30;50.60;;;;;;6160061;28;20042;-75
2022/06/05 02:50:46;;;;;;;0.80;0.80;;;21.30;50.70;;;;;;6190225;28;20075;-74
2022/06/05 02:53:49;;;;;;;0.80;0.80;;;21.30;50.70;;;;;;6166241;28;20014;-74
2022/06/05 02:56:50;;;;;;;1.08;0.80;;;21.20;50.60;;;;;;6193636;28;20069;-74
2022/06/05 02:59:51;;;;;;;0.93;0.82;;;21.20;50.60;;;;;;6183408;28;20714;-74
2022/06/05 03:06:11;;;;;;;1.38;0.80;;;21.20;50.60;;;;;;6191581;28;20026;-74
2022/06/05 03:09:12;;;;;;;1.05;0.90;;;21.20;50.60;;;;;;6189205;28;20030;-74
2022/06/05 03:12:12;;;;;;;2.05;0.82;;;21.20;50.70;;;;;;6169615;28;20477;-74
2022/06/05 03:15:15;;;;;;;0.82;0.70;;;21.20;50.60;;;;;;6182866;28;20022;-74
2022/06/05 03:18:16;;;;;;;0.93;0.82;;;21.20;51.40;;;;;;6195084;28;20061;-73
2022/06/05 03:21:16;;;;;;;1.05;0.85;;;21.20;50.60;;;;;;6156524;28;20026;-74
2022/06/05 03:24:17;;;;;;;0.80;0.80;;;21.20;50.70;;;;;;6172755;28;20030;-73
2022/06/05 03:27:18;;;;;;;0.73;0.73;;;21.20;50.70;;;;;;6196974;28;20023;-74
2022/06/05 03:30:20;;;;;;;2.05;0.90;;;21.20;50.60;;;;;;6188942;28;20030;-74
2022/06/05 03:33:20;;;;;;;0.65;0.65;;;21.20;51.40;;;;;;6172852;28;20058;-74
2022/06/05 03:36:21;;;;;;;0.68;0.60;;;21.20;50.60;;;;;;6155173;28;20537;-73
2022/06/05 03:39:22;;;;;;;0.77;0.77;;;21.20;50.60;;;;;;6152312;28;20034;-73
2022/06/05 03:42:23;;;;;;;0.85;0.70;;;21.20;50.60;;;;;;6175150;28;20031;-74
2022/06/05 03:45:24;;;;;;;2.53;0.73;;;21.20;50.60;;;;;;6174799;28;20437;-74
2022/06/05 03:48:25;;;;;;;0.73;0.70;;;21.20;50.60;;;;;;6173883;28;20061;-74
2022/06/05 03:51:25;;;;;;;1.77;0.80;;;21.20;50.60;;;;;;6157636;28;20053;-74
2022/06/05 03:54:26;;;;;;;1.30;0.93;;;21.20;50.70;;;;;;6166297;28;20494;-74
2022/06/05 03:57:27;;;;;;;0.77;0.77;;;21.20;50.70;;;;;;6173923;28;20023;-73
2022/06/05 04:00:27;;;;;;;1.50;0.90;;;21.20;50.70;;;;;;6165315;28;20042;-73
2022/06/05 04:03:28;;;;;;;1.17;0.75;;;21.20;50.70;;;;;;6148634;28;20537;-74
2022/06/05 04:06:31;;;;;;;0.70;0.63;;;21.20;50.70;;;;;;6165987;28;20021;-74
2022/06/05 04:09:32;;;;;;;0.98;0.90;;;21.20;50.70;;;;;;6189587;28;20023;-73
2022/06/05 04:12:33;;;;;;;0.95;0.88;;;21.20;50.80;;;;;;6150710;28;20390;-74
2022/06/05 04:15:40;;;;;;;0.85;0.85;;;21.30;50.80;;;;;;6157687;28;20034;-73
2022/06/05 04:18:41;;;;;;;1.30;1.00;;;21.20;50.80;;;;;;6189427;28;20081;-74
2022/06/05 04:21:44;;;;;;;1.30;1.00;;;21.30;50.90;;;;;;6158863;28;20398;-74
2022/06/05 04:24:44;;;;;;;1.13;1.00;;;21.30;50.90;;;;;;6149965;28;20110;-74
2022/06/05 04:27:45;;;;;;;0.90;0.80;;;21.20;50.80;;;;;;6175935;28;20033;-74
2022/06/05 04:30:46;;;;;;;0.80;0.75;;;21.30;50.90;;;;;;6166906;28;20031;-74
2022/06/05 04:33:48;;;;;;;0.73;0.73;;;21.30;50.90;;;;;;6163492;28;20051;-75
2022/06/05 04:36:49;;;;;;;0.88;0.70;;;21.20;50.80;;;;;;6172516;28;20029;-75
2022/06/05 04:39:49;;;;;;;1.10;1.00;;;21.30;50.90;;;;;;6156833;28;20430;-74
2022/06/05 04:42:50;;;;;;;1.25;1.00;;;21.30;50.90;;;;;;6177923;28;20030;-74
2022/06/05 04:45:51;;;;;;;1.08;0.85;;;21.30;50.90;;;;;;6174505;28;20019;-74
2022/06/05 04:48:51;;;;;;;0.95;0.70;;;21.30;50.90;;;;;;6173481;28;20042;-74
2022/06/05 04:51:52;;;;;;;1.15;0.90;;;21.30;50.90;;;;;;6185543;28;20043;-74
2022/06/05 04:54:53;;;;;;;0.95;0.85;;;21.30;50.90;;;;;;6197158;28;20088;-74
2022/06/05 04:57:53;;;;;;;0.85;0.85;;;21.30;50.90;;;;;;6176846;28;20066;-74
2022/06/05 05:00:54;;;;;;;0.90;0.90;;;21.30;50.90;;;;;;6158348;28;20069;-74
2022/06/05 05:03:58;;;;;;;1.00;0.70;;;21.30;50.90;;;;;;6171245;28;20030;-74
2022/06/05 05:06:58;;;;;;;0.60;0.60;;;21.30;50.90;;;;;;6184801;28;20029;-74
2022/06/05 05:09:59;;;;;;;1.00;0.90;;;21.30;51.00;;;;;;6197080;28;20450;-74
2022/06/05 05:13:00;;;;;;;0.70;0.65;;;21.30;51.00;;;;;;6177662;28;20037;-74
2022/06/05 05:16:02;;;;;;;1.20;1.00;;;21.20;50.90;;;;;;6175291;28;20027;-74
2022/06/05 05:19:03;;;;;;;1.10;0.77;;;21.20;50.90;;;;;;6196199;28;20085;-74
2022/06/05 05:22:03;;;;;;;0.65;0.65;;;21.20;50.90;;;;;;6194422;28;20065;-74
2022/06/05 05:25:07;;;;;;;1.15;0.90;;;21.30;51.00;;;;;;6196236;28;20030;-74
2022/06/05 05:28:08;;;;;;;0.88;0.80;;;21.30;51.00;;;;;;6178030;28;20026;-74
2022/06/05 05:31:17;;;;;;;1.00;0.90;;;21.30;51.00;;;;;;6177318;28;20030;-75
2022/06/05 05:34:17;;;;;;;0.90;0.75;;;21.30;51.00;;;;;;6172412;28;20050;-74
2022/06/05 05:37:18;;;;;;;0.70;0.70;;;21.30;51.00;;;;;;6165444;28;20030;-74
2022/06/05 05:43:38;;;;;;;1.00;0.80;;;21.30;51.00;;;;;;6196652;28;20101;-74
2022/06/05 05:46:39;;;;;;;1.15;0.70;;;21.30;51.00;;;;;;6174820;28;20037;-74
2022/06/05 05:49:40;;;;;;;0.85;0.77;;;21.30;51.00;;;;;;6170485;28;20105;-74
2022/06/05 05:52:42;;;;;;;0.73;0.73;;;21.30;51.00;;;;;;6182529;28;20022;-73
2022/06/05 05:55:43;;;;;;;0.77;0.70;;;21.30;51.70;;;;;;6177608;28;20464;-74
2022/06/05 05:58:44;;;;;;;0.95;0.80;;;21.30;51.00;;;;;;6175963;28;20034;-74
2022/06/05 06:01:45;;;;;;;1.20;1.05;;;21.30;51.00;;;;;;6171135;28;20027;-75
2022/06/05 06:04:46;;;;;;;0.80;0.80;;;21.30;51.00;;;;;;6172170;28;20073;-74
2022/06/05 06:07:46;;;;;;;0.70;0.70;;;21.30;51.00;;;;;;6181736;28;20028;-74
2022/06/05 06:10:47;;;;;;;1.08;0.85;;;21.30;51.00;;;;;;6178363;28;20030;-74
2022/06/05 06:13:48;;;;;;;0.77;0.68;;;21.30;51.00;;;;;;6178693;28;20035;-74
2022/06/05 06:16:48;;;;;;;0.95;0.70;;;21.30;51.00;;;;;;6172357;28;20027;-74
2022/06/05 06:19:49;;;;;;;1.00;0.90;;;21.30;51.00;;;;;;6194767;28;20054;-74
2022/06/05 06:22:50;;;;;;;1.02;0.70;;;21.30;51.10;;;;;;6186294;28;20644;-74
2022/06/05 06:25:50;;;;;;;0.90;0.80;;;21.30;51.10;;;;;;6154126;28;20030;-74
2022/06/05 06:28:51;;;;;;;0.90;0.75;;;21.30;51.10;;;;;;6183347;28;20073;-74
2022/06/05 06:31:52;;;;;;;1.52;0.80;;;21.30;51.10;;;;;;6176705;28;20034;-74
2022/06/05 06:34:52;;;;;;;0.80;0.80;;;21.30;51.10;;;;;;6153716;28;20054;-74
2022/06/05 06:37:53;;;;;;;0.82;0.75;;;21.30;51.10;;;;;;6170847;28;20109;-75
2022/06/05 06:41:00;;;;;;;1.25;0.95;;;21.30;51.10;;;;;;6154153;28;20058;-73
2022/06/05 06:44:03;;;;;;;0.90;0.85;;;21.30;51.80;;;;;;6185289;28;20077;-73
2022/06/05 06:47:03;;;;;;;0.80;0.80;;;21.30;51.10;;;;;;6195924;28;20026;-74
2022/06/05 06:50:05;;;;;;;0.80;0.80;;;21.30;51.00;;;;;;6154710;28;20034;-74
2022/06/05 06:53:05;;;;;;;0.70;0.70;;;21.30;51.00;;;;;;6173545;28;20030;-74
2022/06/05 06:56:14;;;;;;;0.73;0.63;;;21.30;51.00;;;;;;6171472;28;20445;-73
2022/06/05 06:59:15;;;;;;;1.00;0.90;;;21.30;51.00;;;;;;6177090;28;20038;-74
2022/06/05 07:02:15;;;;;;;0.80;0.80;;;21.30;51.10;;;;;;6198358;28;20030;-74
2022/06/05 07:05:16;;;;;;;1.75;0.70;;;21.20;50.90;;;;;;6199219;28;20022;-74
2022/06/05 07:08:17;;;;;;;0.80;0.68;;;21.30;51.10;;;;;;6194086;28;20034;-74
2022/06/05 07:11:18;;;;;;;1.13;0.90;;;21.30;51.80;;;;;;6175400;28;20031;-74
2022/06/05 07:14:19;;;;;;;1.05;0.80;;;21.30;51.10;;;;;;6189400;28;20457;-74
2022/06/05 07:17:19;;;;;;;0.82;0.70;;;21.30;51.10;;;;;;6199235;28;20109;-73
2022/06/05 07:20:20;;;;;;;0.80;0.80;;;21.30;51.00;;;;;;6178007;28;20105;-74
2022/06/05 07:23:21;;;;;;;1.08;0.70;;;21.30;51.10;;;;;;6179590;28;20069;-74
2022/06/05 07:26:24;;;;;;;1.10;0.88;;;21.30;51.10;;;;;;6198192;28;20023;-73
2022/06/05 07:29:25;;;;;;;0.70;0.60;;;21.30;51.10;;;;;;6187321;28;20039;-74
2022/06/05 07:32:26;;;;;;;0.82;0.82;;;21.30;51.10;;;;;;6193725;28;20034;-75
2022/06/05 07:35:26;;;;;;;0.95;0.90;;;21.30;51.10;;;;;;6179447;28;20054;-74
2022/06/05 07:38:27;;;;;;;0.80;0.73;;;21.30;51.10;;;;;;6178073;28;20030;-74
2022/06/05 07:41:31;;;;;;;0.88;0.80;;;21.30;51.10;;;;;;6198337;28;20026;-73
2022/06/05 07:44:33;;;;;;;0.70;0.70;;;21.30;51.10;;;;;;6198437;28;20023;-74
2022/06/05 07:47:33;;;;;;;0.80;0.80;;;21.30;51.10;;;;;;6198955;28;20039;-74
2022/06/05 07:50:34;;;;;;;0.88;0.80;;;21.30;51.80;;;;;;6158686;28;20363;-74
2022/06/05 07:57:12;;;;;;;0.93;0.73;;;21.30;51.30;;;;;;6195825;28;20391;-73
2022/06/05 08:00:13;;;;;;;2.90;0.75;;;21.30;51.00;;;;;;6182544;28;20033;-73
2022/06/05 08:03:14;;;;;;;1.02;0.82;;;21.30;51.00;;;;;;6172354;28;20101;-73
2022/06/05 08:06:14;;;;;;;0.63;0.63;;;21.30;50.90;;;;;;6195639;28;20030;-74
2022/06/05 08:09:15;;;;;;;0.60;0.60;;;21.30;51.00;;;;;;6190186;28;20460;-75
2022/06/05 08:12:19;;;;;;;1.00;0.90;;;21.30;50.90;;;;;;6171725;28;20039;-73
2022/06/05 08:15:20;;;;;;;1.00;0.82;;;21.30;50.90;;;;;;6186456;28;20085;-73
2022/06/05 08:18:21;;;;;;;0.80;0.70;;;21.30;51.20;;;;;;6197064;28;20562;-73
2022/06/05 08:21:23;;;;;;;0.98;0.90;;;21.30;51.30;;;;;;6164062;28;20624;-73
2022/06/05 08:24:23;;;;;;;0.82;0.60;;;21.30;51.40;;;;;;6191463;28;20029;-74
2022/06/05 08:27:27;;;;;;;1.15;1.02;;;21.30;51.40;;;;;;6172248;28;20474;-74
2022/06/05 08:30:27;;;;;;;3.67;0.93;;;21.40;51.30;;;;;;6183963;28;20034;-74
2022/06/05 08:33:28;;;;;;;1.13;0.90;;;21.30;51.40;;;;;;6195800;28;20050;-73
2022/06/05 08:36:29;;;;;;;3.30;0.93;;;21.40;51.40;;;;;;6175361;28;20671;-73
2022/06/05 08:43:24;;;;;;;1.30;0.85;;;21.40;50.10;;;;;;6195472;28;20027;-73
2022/06/05 08:46:29;;;;;;;1.90;1.13;;;21.50;49.20;;;;;;6195743;28;20492;-73
2022/06/05 08:49:37;;;;;;;1.48;1.02;;;21.60;48.60;;;;;;6191583;28;20185;-73
2022/06/05 08:52:44;;;;;;;1.70;0.90;;;21.70;48.40;;;;;;6195154;28;20035;-73
2022/06/05 08:55:47;;;;;;;2.40;1.02;;;21.70;48.10;;;;;;6186940;28;20436;-72
2022/06/05 08:58:57;;;;;;;0.68;0.60;;;21.80;48.90;;;;;;6195365;28;20654;-73
2022/06/05 09:02:00;;;;;;;0.68;0.68;;;21.80;48.10;;;;;;6192291;28;20022;-73
2022/06/05 09:05:06;;;;;;;5.75;0.90;;;21.80;47.90;;;;;;6188694;28;20022;-73
2022/06/05 09:08:16;;;;;;;0.70;0.65;;;21.80;47.70;;;;;;6194917;28;20049;-73
2022/06/05 09:11:44;;;;;;;0.68;0.60;;;21.80;47.50;;;;;;6186071;28;20117;-72
2022/06/05 09:15:11;;;;;;;1.05;0.70;;;21.80;47.30;;;;;;6194591;28;20417;-73
2022/06/05 09:18:22;;;;;;;1.02;0.80;;;21.90;47.30;;;;;;6177613;28;20027;-73
2022/06/05 09:21:35;;;;;;;1.55;1.00;;;21.90;47.20;;;;;;6144692;28;20023;-73
2022/06/05 09:25:00;;;;;;;1.23;0.82;;;21.90;47.10;;;;;;6159942;28;20043;-72
2022/06/05 09:28:11;;;;;;;1.60;0.77;;;21.90;47.00;;;;;;6195127;28;20042;-75
2022/06/05 09:31:33;;;;;;;0.90;0.70;;;21.90;46.90;;;;;;6185561;28;20353;-72
2022/06/05 09:34:59;;;;;;;0.83;0.60;;;21.90;46.80;;;;;;5612759;28;10003029;-72
2022/06/05 09:38:22;;;;;;;1.98;0.70;;;22.00;46.80;;;;;;6216742;28;20037;-74
2022/06/05 09:41:44;;;;;;;1.02;0.80;;;22.00;46.80;;;;;;6207351;28;20084;-72
2022/06/05 09:44:50;;;;;;;0.57;0.50;;;22.00;46.60;;;;;;6218741;28;20031;-73
2022/06/05 09:47:56;;;;;;;1.13;0.80;;;22.00;46.50;;;;;;6215329;28;20036;-73
2022/06/05 09:50:57;;;;;;;0.63;0.60;;;22.00;46.50;;;;;;6217217;28;20030;-73
2022/06/05 09:54:04;;;;;;;0.63;0.63;;;22.00;46.40;;;;;;6200667;28;20053;-74
2022/06/05 10:00:50;;;;;;;0.70;0.60;;;22.00;46.30;;;;;;6191113;28;20034;-73
2022/06/05 10:03:52;;;;;;;0.68;0.65;;;22.00;46.20;;;;;;6206705;28;20036;-73
2022/06/05 10:07:05;;;;;;;0.90;0.80;;;22.00;46.10;;;;;;6215819;28;20069;-74
2022/06/05 10:10:18;;;;;;;0.90;0.60;;;22.00;46.10;;;;;;6217508;28;20026;-73
2022/06/05 10:13:37;;;;;;;0.70;0.50;;;22.00;46.00;;;;;;6217224;28;20026;-74
2022/06/05 10:16:47;;;;;;;0.77;0.60;;;22.00;45.90;;;;;;6218682;28;20030;-73
2022/06/05 10:19:53;;;;;;;0.50;0.50;;;22.00;46.20;;;;;;6200493;28;20081;-73
2022/06/05 10:23:32;;;;;;;1.02;0.60;;;22.00;45.80;;;;;;6194111;28;20362;-73
2022/06/05 10:26:37;;;;;;;0.90;0.50;;;22.00;45.80;;;;;;6216885;28;20064;-71
2022/06/05 10:29:44;;;;;;;0.70;0.60;;;22.10;45.80;;;;;;6213739;28;20040;-73
2022/06/05 10:32:49;;;;;;;0.60;0.50;;;22.00;45.70;;;;;;6216486;28;20046;-73
2022/06/05 10:36:20;;;;;;;1.57;0.60;;;21.90;47.00;;;;;;6209051;28;20050;-73
2022/06/05 10:39:50;;;;;;;0.93;0.60;;;21.80;47.50;;;;;;6175983;28;20057;-74
2022/06/05 10:43:16;;;;;;;0.60;0.60;;;21.70;47.80;;;;;;6192667;28;20373;-74
2022/06/05 10:46:27;;;;;;;0.47;0.47;;;21.70;48.20;;;;;;6212861;28;20034;-73
2022/06/05 10:49:43;;;;;;;1.00;0.60;;;21.60;48.30;;;;;;6187899;28;20026;-73
2022/06/05 10:53:13;;;;;;;0.60;0.60;;;21.60;48.60;;;;;;6214520;28;20069;-73
2022/06/05 10:56:33;;;;;;;0.93;0.80;;;21.60;48.70;;;;;;6209373;28;20022;-73
2022/06/05 10:59:56;;;;;;;0.80;0.60;;;21.60;49.00;;;;;;6200196;28;20499;-73
2022/06/05 11:03:19;;;;;;;0.60;0.50;;;21.60;49.10;;;;;;6198062;28;20026;-73
2022/06/05 11:06:25;;;;;;;0.50;0.50;;;21.50;49.10;;;;;;6216773;28;20057;-73
2022/06/05 11:09:56;;;;;;;0.63;0.52;;;21.60;49.40;;;;;;6209615;28;20030;-73
2022/06/05 11:16:38;;;;;;;0.80;0.70;;;21.50;49.60;;;;;;6191750;28;20035;-74
2022/06/05 11:20:01;;;;;;;0.77;0.52;;;21.50;49.60;;;;;;6191436;28;20511;-73
2022/06/05 11:23:11;;;;;;;1.13;0.80;;;21.50;49.70;;;;;;6190424;28;20033;-73
2022/06/05 11:26:20;;;;;;;0.70;0.60;;;21.50;50.50;;;;;;6206845;28;20053;-73
2022/06/05 11:29:25;;;;;;;0.60;0.60;;;21.50;49.80;;;;;;6215980;28;20481;-73
2022/06/05 11:32:47;;;;;;;0.65;0.50;;;21.50;49.80;;;;;;6214007;28;20034;-74
2022/06/05 11:36:16;;;;;;;0.82;0.60;;;21.50;49.90;;;;;;6203318;28;20047;-73
2022/06/05 11:39:42;;;;;;;0.50;0.50;;;21.50;49.90;;;;;;6190224;28;20414;-73
2022/06/05 11:42:57;;;;;;;0.63;0.63;;;21.50;49.90;;;;;;6198244;28;20026;-73
2022/06/05 11:46:20;;;;;;;0.60;0.52;;;21.40;49.80;;;;;;6208882;28;20057;-73
2022/06/05 11:49:34;;;;;;;0.52;0.50;;;21.50;49.90;;;;;;6220248;28;20141;-73
2022/06/05 11:52:41;;;;;;;0.60;0.50;;;21.50;50.00;;;;;;6214571;28;20042;-73
2022/06/05 11:55:56;;;;;;;0.57;0.57;;;21.50;50.00;;;;;;6195993;28;20062;-73
2022/06/05 11:59:24;;;;;;;1.20;0.77;;;21.50;50.00;;;;;;6218934;28;20548;-73
2022/06/05 12:03:02;;;;;;;0.35;0.35;;;21.50;50.00;;;;;;6202010;28;20034;-74
2022/06/05 12:06:39;;;;;;;0.57;0.50;;;21.40;49.90;;;;;;6219818;28;20026;-73
2022/06/05 12:09:52;;;;;;;0.57;0.50;;;21.50;50.00;;;;;;6219455;28;20076;-74
2022/06/05 12:13:12;;;;;;;0.45;0.43;;;21.50;50.10;;;;;;6219193;28;20045;-73
2022/06/05 12:16:27;;;;;;;0.55;0.55;;;21.40;50.00;;;;;;6216059;28;20033;-73
2022/06/05 12:19:43;;;;;;;0.57;0.57;;;21.50;50.20;;;;;;6190982;28;20037;-72
2022/06/05 12:22:52;;;;;;;0.70;0.50;;;21.40;50.00;;;;;;6191998;28;20330;-73
2022/06/05 12:25:58;;;;;;;0.40;0.40;;;21.50;50.20;;;;;;6194502;28;20072;-74
2022/06/05 12:29:10;;;;;;;0.40;0.40;;;21.40;50.10;;;;;;6188390;28;20076;-74
2022/06/05 12:32:26;;;;;;;0.65;0.50;;;21.40;50.10;;;;;;6189222;28;20034;-73
2022/06/05 12:35:35;;;;;;;0.60;0.45;;;21.40;50.10;;;;;;6220795;28;20479;-73
2022/06/05 12:38:50;;;;;;;0.40;0.40;;;21.40;50.10;;;;;;6219805;28;20021;-73
2022/06/05 12:42:21;;;;;;;0.40;0.40;;;21.40;50.10;;;;;;6220169;28;20038;-74
2022/06/05 12:45:27;;;;;;;0.40;0.30;;;21.40;50.20;;;;;;6219767;28;20571;-73
2022/06/05 12:48:32;;;;;;;0.77;0.52;;;21.40;50.20;;;;;;6197916;28;20029;-74
2022/06/05 12:51:33;;;;;;;0.40;0.40;;;21.40;50.20;;;;;;6199271;28;20029;-73
2022/06/05 12:54:45;;;;;;;0.35;0.35;;;21.40;50.20;;;;;;6216085;28;20408;-73
2022/06/05 12:57:59;;;;;;;0.47;0.47;;;21.40;50.20;;;;;;6185083;28;20030;-72
2022/06/05 13:01:08;;;;;;;0.43;0.40;;;21.40;50.20;;;;;;6185061;28;20128;-74
2022/06/05 13:04:17;;;;;;;0.60;0.50;;;21.40;50.20;;;;;;6190777;28;20324;-73
2022/06/05 13:07:22;;;;;;;0.40;0.40;;;21.40;50.20;;;;;;6184507;28;20030;-73
2022/06/05 13:10:35;;;;;;;0.50;0.50;;;21.40;50.20;;;;;;6194874;28;20058;-73
2022/06/05 13:13:47;;;;;;;0.60;0.47;;;21.50;50.00;;;;;;6199631;28;20132;-74
2022/06/05 13:16:56;;;;;;;0.70;0.50;;;21.50;49.90;;;;;;6202428;28;20384;-73
2022/06/05 13:20:02;;;;;;;0.55;0.55;;;21.50;49.80;;;;;;5323534;28;10000174;-72
2022/06/05 13:23:18;;;;;;;0.40;0.40;;;21.50;49.90;;;;;;6211296;28;20029;-73
2022/06/05 13:26:38;;;;;;;0.50;0.50;;;21.50;49.90;;;;;;6203358;28;20058;-73
2022/06/05 13:29:53;;;;;;;0.93;0.60;;;21.50;49.80;;;;;;6185613;28;20029;-72
2022/06/05 13:33:10;;;;;;;0.40;0.40;;;21.50;50.00;;;;;;6193322;28;20131;-73
2022/06/05 13:36:45;;;;;;;0.43;0.40;;;21.50;50.10;;;;;;6192632;28;20693;-72
2022/06/05 13:40:25;;;;;;;0.35;0.35;;;21.50;50.20;;;;;;6192658;28;20381;-73
2022/06/05 13:43:31;;;;;;;0.50;0.50;;;21.50;50.30;;;;;;6189002;28;20221;-72
2022/06/05 13:46:40;;;;;;;0.50;0.50;;;21.50;50.20;;;;;;6215098;28;20065;-73
2022/06/05 13:50:00;;;;;;;0.82;0.60;;;21.50;50.20;;;;;;6200966;28;20036;-73
2022/06/05 13:53:14;;;;;;;0.47;0.47;;;21.50;50.20;;;;;;6200774;28;20087;-72
2022/06/05 13:56:18;;;;;;;0.40;0.40;;;21.40;50.20;;;;;;6193324;28;20232;-73
2022/06/05 13:59:23;;;;;;;0.63;0.40;;;21.40;50.20;;;;;;6205581;28;20275;-73
2022/06/05 14:02:45;;;;;;;1.17;0.40;;;21.40;50.20;;;;;;6218472;28;20026;-73
2022/06/05 14:05:52;;;;;;;0.50;0.50;;;21.40;50.20;;;;;;6196507;28;20037;-72
2022/06/05 14:08:56;;;;;;;0.45;0.45;;;21.40;50.20;;;;;;6196892;28;20026;-73
2022/06/05 14:11:57;;;;;;;1.13;0.47;;;21.40;50.30;;;;;;6216170;28;20073;-73
2022/06/05 14:15:11;;;;;;;0.47;0.47;;;21.40;51.00;;;;;;6204323;28;20030;-72
2022/06/05 14:18:48;;;;;;;0.50;0.45;;;21.40;50.20;;;;;;6193934;28;20060;-72
2022/06/05 14:22:12;;;;;;;13.95;0.82;;;21.40;50.20;;;;;;6163531;28;20121;-73
2022/06/05 14:25:26;;;;;;;7.65;0.70;;;21.40;50.50;;;;;;6190703;28;20066;-73
2022/06/05 14:28:39;;;;;;;1.08;0.73;;;21.40;50.70;;;;;;6218224;28;20488;-74
2022/06/05 14:31:41;;;;;;;5.15;0.50;;;21.50;50.90;;;;;;6193834;28;20065;-73
2022/06/05 14:34:45;;;;;;;4.10;0.50;;;21.50;50.70;;;;;;6193006;28;20054;-74
2022/06/05 14:38:20;;;;;;;0.97;0.60;;;21.50;50.70;;;;;;6192500;28;20073;-74
2022/06/05 14:41:26;;;;;;;4.60;0.50;;;21.50;50.60;;;;;;6197106;28;20026;-73
2022/06/05 14:44:47;;;;;;;1.73;0.60;;;21.50;50.70;;;;;;6217100;28;20026;-73
2022/06/05 14:47:59;;;;;;;0.47;0.45;;;21.40;50.70;;;;;;6218684;28;20022;-73
2022/06/05 14:51:14;;;;;;;0.52;0.50;;;21.40;50.60;;;;;;6199929;28;20037;-73
2022/06/05 14:58:13;;;;;;;2.03;0.60;;;21.40;50.60;;;;;;6208635;28;20038;-74
2022/06/05 15:01:24;;;;;;;0.50;0.40;;;21.40;50.60;;;;;;6214643;28;20018;-74
2022/06/05 15:04:48;;;;;;;4.15;0.50;;;21.40;50.60;;;;;;6199490;28;20493;-74
2022/06/05 15:08:12;;;;;;;0.60;0.40;;;21.40;50.60;;;;;;6218055;28;20032;-74
2022/06/05 15:11:40;;;;;;;0.88;0.60;;;21.40;50.60;;;;;;6200753;28;20053;-73
2022/06/05 15:15:14;;;;;;;0.85;0.57;;;21.40;50.60;;;;;;6196996;28;20088;-73
2022/06/05 15:18:15;;;;;;;0.77;0.43;;;21.40;50.50;;;;;;6217810;28;20030;-73
2022/06/05 15:21:37;;;;;;;0.60;0.60;;;21.40;50.60;;;;;;6209586;28;20302;-74
2022/06/05 15:24:44;;;;;;;0.70;0.43;;;21.40;50.60;;;;;;6219955;28;20049;-74
2022/06/05 15:27:55;;;;;;;0.50;0.50;;;21.40;50.60;;;;;;6219901;28;20029;-73
2022/06/05 15:31:16;;;;;;;0.57;0.50;;;21.40;50.60;;;;;;6213197;28;20614;-73
2022/06/05 15:34:25;;;;;;;0.77;0.50;;;21.40;50.60;;;;;;6196360;28;20551;-73
2022/06/05 15:37:46;;;;;;;0.60;0.40;;;21.40;50.50;;;;;;6196392;28;20509;-73
2022/06/05 15:40:56;;;;;;;0.40;0.40;;;21.40;50.50;;;;;;6196048;28;20026;-73
2022/06/05 15:44:17;;;;;;;0.60;0.50;;;21.40;50.50;;;;;;6196481;28;20102;-73
2022/06/05 15:47:37;;;;;;;0.45;0.40;;;21.40;50.60;;;;;;6221001;28;20025;-74
2022/06/05 15:50:44;;;;;;;0.43;0.30;;;21.40;50.60;;;;;;6206648;28;20031;-73
2022/06/05 15:54:14;;;;;;;0.30;0.30;;;21.40;50.50;;;;;;6211418;28;20034;-74
2022/06/05 16:01:12;;;;;;;0.70;0.40;;;21.40;50.60;;;;;;6150167;28;20031;-74
2022/06/05 16:04:22;;;;;;;1.00;0.38;;;21.40;50.70;;;;;;6195967;28;20493;-73
2022/06/05 16:07:30;;;;;;;0.57;0.40;;;21.40;50.70;;;;;;6220255;28;20018;-74
2022/06/05 16:10:43;;;;;;;0.55;0.50;;;21.40;50.60;;;;;;6220463;28;20416;-74
2022/06/05 16:13:56;;;;;;;0.70;0.52;;;21.40;50.60;;;;;;6220047;28;20627;-74
2022/06/05 16:17:17;;;;;;;0.65;0.50;;;21.40;50.70;;;;;;6198614;28;20045;-73
2022/06/05 16:20:41;;;;;;;0.43;0.40;;;21.40;50.60;;;;;;6204454;28;20033;-74
2022/06/05 16:23:54;;;;;;;0.77;0.65;;;21.40;50.60;;;;;;6219489;28;20054;-74
2022/06/05 16:27:31;;;;;;;0.40;0.40;;;21.40;50.60;;;;;;6200559;28;20037;-74
2022/06/05 16:30:35;;;;;;;0.77;0.40;;;21.40;50.70;;;;;;6204128;28;20057;-74
2022/06/05 16:33:42;;;;;;;0.30;0.30;;;21.40;50.70;;;;;;6201871;28;20053;-73
2022/06/05 16:40:19;;;;;;;0.30;0.30;;;21.30;50.60;;;;;;6196810;28;20447;-74
2022/06/05 16:43:22;;;;;;;0.43;0.43;;;21.40;50.60;;;;;;6196069;28;20102;-73
2022/06/05 16:46:35;;;;;;;0.45;0.35;;;21.40;50.70;;;;;;6198828;28;20121;-74
2022/06/05 16:49:42;;;;;;;0.50;0.50;;;21.40;50.70;;;;;;6220418;28;20022;-74
2022/06/05 16:52:46;;;;;;;0.40;0.40;;;21.40;50.60;;;;;;6195972;28;20485;-73
2022/06/05 16:56:14;;;;;;;0.30;0.30;;;21.40;50.60;;;;;;6201927;28;20021;-74
2022/06/05 16:59:34;;;;;;;0.68;0.40;;;21.40;50.70;;;;;;6209212;28;20057;-74